createdAt,value
2022-12-28T00:01:28.688Z,100557.25
2022-12-28T00:03:55.886Z,100565.19
2022-12-28T00:06:24.401Z,100552.50
2022-12-28T00:08:54.419Z,100552.75
2022-12-28T00:11:28.326Z,100552.00
2022-12-28T00:14:00.088Z,100560.63
2022-12-28T00:16:35.127Z,100551.16
2022-12-28T00:19:04.107Z,100552.69
2022-12-28T00:21:31.008Z,100556.41
2022-12-28T00:23:58.992Z,100558.28
2022-12-28T00:26:27.247Z,100557.69
2022-12-28T00:28:58.385Z,100554.13
2022-12-28T00:31:30.283Z,100559.38
2022-12-28T00:33:56.900Z,100560.13
2022-12-28T00:36:23.413Z,100559.03
2022-12-28T00:38:49.960Z,100556.09
2022-12-28T00:41:16.735Z,100562.88
2022-12-28T00:43:43.281Z,100569.72
2022-12-28T00:46:10.103Z,100569.09
2022-12-28T00:48:36.662Z,100574.09
2022-12-28T00:51:14.906Z,100570.13
2022-12-28T00:53:41.787Z,100574.34
2022-12-28T00:56:14.590Z,100574.34
2022-12-28T00:58:42.027Z,100572.19
2022-12-28T01:01:13.861Z,100569.47
2022-12-28T01:03:40.376Z,100577.16
2022-12-28T01:06:08.297Z,100571.84
2022-12-28T01:08:38.440Z,100571.84
2022-12-28T01:11:08.860Z,100573.88
2022-12-28T01:13:36.165Z,100568.78
2022-12-28T01:16:20.570Z,100576.91
2022-12-28T01:18:47.737Z,100565.06
2022-12-28T01:21:20.192Z,100565.09
2022-12-28T01:23:47.610Z,100572.81
2022-12-28T01:26:15.066Z,100568.13
2022-12-28T01:28:41.973Z,100561.19
2022-12-28T01:31:13.914Z,100560.53
2022-12-28T01:33:41.076Z,100558.50
2022-12-28T01:36:09.344Z,100558.31
2022-12-28T01:38:36.385Z,100550.34
2022-12-28T01:41:02.995Z,100553.41
2022-12-28T01:43:55.919Z,100555.44
2022-12-28T01:46:23.010Z,100551.03
2022-12-28T01:48:57.409Z,100547.91
2022-12-28T01:51:24.648Z,100558.50
2022-12-28T01:53:52.905Z,100549.00
2022-12-28T01:56:20.351Z,100562.38
2022-12-28T01:58:46.980Z,100559.59
2022-12-28T02:01:13.561Z,100560.34
2022-12-28T02:03:40.157Z,100553.00
2022-12-28T02:06:09.965Z,100557.41
2022-12-28T02:08:41.370Z,100564.44
2022-12-28T02:11:11.700Z,100557.75
2022-12-28T02:13:39.123Z,100553.84
2022-12-28T02:16:05.939Z,100556.31
2022-12-28T02:18:32.707Z,100553.75
2022-12-28T02:21:25.506Z,100540.16
2022-12-28T02:24:16.814Z,100541.06
2022-12-28T02:27:04.526Z,100539.72
2022-12-28T02:29:34.546Z,100528.19
2022-12-28T02:32:15.571Z,100525.34
2022-12-28T02:34:49.061Z,100523.78
2022-12-28T02:37:33.272Z,100530.06
2022-12-28T02:40:05.263Z,100528.44
2022-12-28T02:42:31.769Z,100529.22
2022-12-28T02:45:16.721Z,100528.69
2022-12-28T02:48:03.259Z,100527.53
2022-12-28T02:50:54.278Z,100534.19
2022-12-28T02:53:32.044Z,100519.84
2022-12-28T02:56:24.116Z,100517.88
2022-12-28T02:59:24.824Z,100520.06
2022-12-28T03:02:10.970Z,100517.16
2022-12-28T03:04:43.420Z,100523.78
2022-12-28T03:07:41.629Z,100518.41
2022-12-28T03:10:24.052Z,100526.56
2022-12-28T03:12:57.318Z,100530.56
2022-12-28T03:15:34.176Z,100526.16
2022-12-28T03:18:38.059Z,100519.97
2022-12-28T03:21:25.995Z,100525.53
2022-12-28T03:24:11.970Z,100522.75
2022-12-28T03:27:00.169Z,100515.63
2022-12-28T03:29:46.012Z,100518.41
2022-12-28T03:32:12.562Z,100517.47
2022-12-28T03:34:39.186Z,100526.75
2022-12-28T03:37:25.768Z,100520.09
2022-12-28T03:40:34.749Z,100511.41
2022-12-28T03:43:26.247Z,100510.63
2022-12-28T03:46:15.374Z,100505.19
2022-12-28T03:48:43.423Z,100502.50
2022-12-28T03:51:11.704Z,100496.38
2022-12-28T03:53:41.633Z,100492.41
2022-12-28T03:56:16.657Z,100486.25
2022-12-28T03:58:43.199Z,100467.13
2022-12-28T04:01:09.999Z,100459.97
2022-12-28T04:03:36.910Z,100460.53
2022-12-28T04:06:04.356Z,100460.97
2022-12-28T04:08:31.810Z,100456.97
2022-12-28T04:11:01.699Z,100452.59
2022-12-28T04:13:31.798Z,100450.81
2022-12-28T04:15:59.354Z,100451.25
2022-12-28T04:18:25.910Z,100453.59
2022-12-28T04:20:52.531Z,100453.16
2022-12-28T04:23:19.344Z,100462.72
2022-12-28T04:25:59.968Z,100453.72
2022-12-28T04:28:26.671Z,100454.44
2022-12-28T04:30:53.168Z,100454.59
2022-12-28T04:33:20.492Z,100454.06
2022-12-28T04:35:46.956Z,100449.16
2022-12-28T04:38:13.543Z,100453.38
2022-12-28T04:40:40.109Z,100459.03
2022-12-28T04:43:06.866Z,100466.19
2022-12-28T04:45:33.644Z,100466.88
2022-12-28T04:48:00.387Z,100458.19
2022-12-28T04:50:27.250Z,100464.81
2022-12-28T04:52:54.559Z,100453.91
2022-12-28T04:55:32.497Z,100453.84
2022-12-28T04:58:00.359Z,100457.34
2022-12-28T05:00:26.937Z,100462.75
2022-12-28T05:02:53.592Z,100459.06
2022-12-28T05:05:20.396Z,100458.13
2022-12-28T05:07:46.849Z,100453.44
2022-12-28T05:10:13.312Z,100455.59
2022-12-28T05:12:39.958Z,100450.34
2022-12-28T05:15:07.110Z,100453.97
2022-12-28T05:17:33.882Z,100445.50
2022-12-28T05:20:00.429Z,100444.81
2022-12-28T05:22:26.932Z,100439.44
2022-12-28T05:24:53.409Z,100442.69
2022-12-28T05:27:20.366Z,100447.47
2022-12-28T05:29:47.032Z,100459.31
2022-12-28T05:32:13.543Z,100443.38
2022-12-28T05:34:40.094Z,100443.13
2022-12-28T05:37:06.623Z,100443.38
2022-12-28T05:39:33.118Z,100437.22
2022-12-28T05:42:00.798Z,100437.53
2022-12-28T05:44:27.785Z,100439.78
2022-12-28T05:46:54.341Z,100434.13
2022-12-28T05:49:21.100Z,100428.38
2022-12-28T05:51:50.408Z,100419.69
2022-12-28T05:54:16.983Z,100412.91
2022-12-28T05:56:43.620Z,100405.75
2022-12-28T05:59:10.215Z,100413.13
2022-12-28T06:01:39.232Z,100414.69
2022-12-28T06:04:14.638Z,100422.53
2022-12-28T06:06:41.214Z,100422.47
2022-12-28T06:09:07.903Z,100422.53
2022-12-28T06:11:34.419Z,100415.69
2022-12-28T06:14:00.945Z,100412.59
2022-12-28T06:16:29.464Z,100416.47
2022-12-28T06:18:56.659Z,100415.38
2022-12-28T06:21:25.653Z,100419.31
2022-12-28T06:23:52.334Z,100423.69
2022-12-28T06:26:20.942Z,100409.63
2022-12-28T06:28:47.869Z,100404.69
2022-12-28T06:31:22.762Z,100405.47
2022-12-28T06:33:50.382Z,100417.75
2022-12-28T06:36:20.865Z,100413.69
2022-12-28T06:38:48.752Z,100407.94
2022-12-28T06:41:17.152Z,100413.47
2022-12-28T06:43:44.311Z,100411.94
2022-12-28T06:46:11.741Z,100402.38
2022-12-28T06:48:38.690Z,100395.16
2022-12-28T06:51:07.880Z,100404.63
2022-12-28T06:53:36.532Z,100407.75
2022-12-28T06:56:08.696Z,100396.53
2022-12-28T06:58:35.288Z,100395.63
2022-12-28T07:01:10.630Z,100394.38
2022-12-28T07:03:37.827Z,100403.69
2022-12-28T07:06:05.233Z,100395.00
2022-12-28T07:08:32.674Z,100394.94
2022-12-28T07:11:25.445Z,100387.44
2022-12-28T07:13:52.750Z,100381.75
2022-12-28T07:16:21.632Z,100372.66
2022-12-28T07:18:51.987Z,100375.81
2022-12-28T07:21:30.429Z,100371.75
2022-12-28T07:23:57.826Z,100369.44
2022-12-28T07:26:27.343Z,100361.41
2022-12-28T07:28:55.713Z,100366.75
2022-12-28T07:31:24.519Z,100361.78
2022-12-28T07:33:52.407Z,100364.91
2022-12-28T07:36:23.718Z,100365.81
2022-12-28T07:38:50.788Z,100359.09
2022-12-28T07:41:23.587Z,100365.44
2022-12-28T07:43:50.792Z,100364.50
2022-12-28T07:46:21.144Z,100377.88
2022-12-28T07:48:48.086Z,100369.75
2022-12-28T07:51:16.269Z,100363.44
2022-12-28T07:53:44.500Z,100370.56
2022-12-28T07:56:12.175Z,100363.44
2022-12-28T08:01:06.330Z,100370.97
2022-12-28T08:03:33.174Z,100370.97
2022-12-28T08:06:07.480Z,100370.78
2022-12-28T08:08:35.919Z,100367.91
2022-12-28T08:11:06.867Z,100366.56
2022-12-28T08:13:35.197Z,100350.84
2022-12-28T08:16:02.654Z,100354.72
2022-12-28T08:18:29.559Z,100352.94
2022-12-28T08:21:04.176Z,100357.06
2022-12-28T08:23:31.687Z,100357.06
2022-12-28T09:09:11.168Z,100359.59
2022-12-28T09:11:39.165Z,100353.66
2022-12-28T09:14:07.576Z,100357.47
2022-12-28T09:16:34.385Z,100354.13
2022-12-28T09:19:03.442Z,100353.50
2022-12-28T09:21:37.157Z,100346.28
2022-12-28T09:24:04.655Z,100341.94
2022-12-28T09:26:32.686Z,100341.28
2022-12-28T09:29:01.262Z,100343.16
2022-12-28T09:31:29.925Z,100339.19
2022-12-28T09:36:49.202Z,100332.31
2022-12-28T09:39:25.028Z,100320.13
2022-12-28T09:42:03.496Z,100307.25
2022-12-28T09:45:01.354Z,100301.38
2022-12-28T09:47:47.317Z,100301.16
2022-12-28T09:50:17.112Z,100301.97
2022-12-28T09:53:04.130Z,100296.50
2022-12-28T09:55:31.891Z,100294.38
2022-12-28T09:57:59.658Z,100282.19
2022-12-28T10:00:36.875Z,100277.97
2022-12-28T10:03:07.393Z,100271.88
2022-12-28T10:05:34.395Z,100269.25
2022-12-28T10:08:01.223Z,100262.19
2022-12-28T10:10:28.690Z,100261.19
2022-12-28T10:12:55.392Z,100265.56
2022-12-28T10:15:23.301Z,100257.34
2022-12-28T10:17:49.828Z,100260.00
2022-12-28T10:20:20.647Z,100254.50
2022-12-28T10:22:53.419Z,100260.00
2022-12-28T10:25:25.643Z,100247.94
2022-12-28T10:27:53.563Z,100251.00
2022-12-28T10:30:26.758Z,100246.81
2022-12-28T10:33:02.098Z,100248.63
2022-12-28T10:35:36.212Z,100235.84
2022-12-28T10:38:04.626Z,100227.03
2022-12-28T10:40:34.405Z,100224.41
2022-12-28T10:43:04.159Z,100222.94
2022-12-28T10:45:39.704Z,100228.63
2022-12-28T10:48:28.594Z,100223.91
2022-12-28T10:50:59.641Z,100212.25
2022-12-28T10:53:27.626Z,100206.56
2022-12-28T10:56:12.456Z,100205.50
2022-12-28T10:58:50.618Z,100199.19
2022-12-28T11:01:28.894Z,100190.38
2022-12-28T11:03:55.417Z,100177.75
2022-12-28T11:06:29.516Z,100181.56
2022-12-28T11:09:07.206Z,100183.41
2022-12-28T11:11:34.188Z,100173.13
2022-12-28T11:14:09.298Z,100169.53
2022-12-28T11:16:40.662Z,100164.75
2022-12-28T11:19:07.312Z,100159.22
2022-12-28T11:21:35.225Z,100154.19
2022-12-28T11:24:02.019Z,100141.78
2022-12-28T11:26:29.445Z,100140.47
2022-12-28T11:28:56.211Z,100143.13
2022-12-28T11:31:28.277Z,100151.97
2022-12-28T11:33:58.199Z,100156.28
2022-12-28T11:36:26.109Z,100150.97
2022-12-28T11:38:55.251Z,100146.63
2022-12-28T11:41:30.167Z,100142.69
2022-12-28T11:44:02.730Z,100138.25
2022-12-28T11:46:35.419Z,100136.81
2022-12-28T11:49:04.217Z,100135.63
2022-12-28T11:51:32.302Z,100126.38
2022-12-28T11:54:01.766Z,100127.44
2022-12-28T11:56:49.390Z,100123.75
2022-12-28T11:59:25.983Z,100114.16
2022-12-28T12:01:54.740Z,100107.97
2022-12-28T12:04:30.433Z,100094.47
2022-12-28T12:07:01.354Z,100090.78
2022-12-28T13:08:48.417Z,99993.75
2022-12-28T13:11:15.668Z,99979.88
2022-12-28T13:13:46.756Z,99980.50
2022-12-28T13:16:21.823Z,99969.56
2022-12-28T13:19:02.915Z,99980.50
2022-12-28T13:21:39.069Z,99977.41
2022-12-28T13:24:27.541Z,99968.97
2022-12-28T13:26:58.485Z,99964.53
2022-12-28T13:29:38.009Z,99958.28
2022-12-28T13:32:04.679Z,99951.09
2022-12-28T13:34:35.945Z,99948.34
2022-12-28T13:37:11.798Z,99947.97
2022-12-28T13:39:42.138Z,99949.19
2022-12-28T13:42:25.162Z,99951.09
2022-12-28T13:45:02.662Z,99942.69
2022-12-28T13:47:35.936Z,99934.94
2022-12-28T13:50:14.537Z,99942.50
2022-12-28T13:52:56.528Z,99940.81
2022-12-28T13:55:28.605Z,99937.69
2022-12-28T13:57:59.983Z,99929.78
2022-12-28T14:00:27.619Z,99927.31
2022-12-28T14:02:55.659Z,99933.88
2022-12-28T14:05:24.852Z,99924.41
2022-12-28T14:07:52.311Z,99919.38
2022-12-28T14:10:23.412Z,99922.53
2022-12-28T14:12:50.849Z,99918.13
2022-12-28T14:15:18.562Z,99925.28
2022-12-28T14:17:50.418Z,99917.63
2022-12-28T14:20:18.027Z,99917.53
2022-12-28T14:22:45.584Z,99906.84
2022-12-28T14:25:15.653Z,99905.31
2022-12-28T14:27:57.433Z,99896.00
2022-12-28T14:30:32.673Z,99896.03
2022-12-28T14:33:09.909Z,99894.34
2022-12-28T14:35:47.333Z,99894.25
2022-12-28T14:38:19.399Z,99891.63
2022-12-28T14:40:53.270Z,99891.72
2022-12-28T14:43:42.595Z,99898.94
2022-12-28T14:46:17.686Z,99894.84
2022-12-28T14:48:45.412Z,99899.38
2022-12-28T14:51:14.834Z,99889.09
2022-12-28T14:53:41.383Z,99880.47
2022-12-28T14:56:14.447Z,99865.53
2022-12-28T14:58:58.016Z,99861.56
2022-12-28T15:01:25.508Z,99862.34
2022-12-28T15:03:57.078Z,99863.03
2022-12-28T15:06:27.343Z,99866.66
2022-12-28T15:08:55.497Z,99866.19
2022-12-28T15:11:24.172Z,99865.97
2022-12-28T15:13:50.757Z,99866.75
2022-12-28T15:16:20.252Z,99870.84
2022-12-28T15:18:46.881Z,99878.88
2022-12-28T15:21:21.680Z,99877.81
2022-12-28T15:23:52.619Z,99848.28
2022-12-28T15:26:20.225Z,99867.41
2022-12-28T15:28:47.032Z,99864.19
2022-12-28T15:31:18.467Z,99865.22
2022-12-28T15:33:45.741Z,99854.72
2022-12-28T15:36:17.878Z,99854.84
2022-12-28T15:38:45.557Z,99861.19
2022-12-28T15:41:30.772Z,99854.03
2022-12-28T15:43:57.273Z,99867.41
2022-12-28T15:46:24.143Z,99862.53
2022-12-28T15:48:50.718Z,99859.66
2022-12-28T15:51:17.355Z,99860.03
2022-12-28T15:53:43.934Z,99863.41
2022-12-28T15:56:20.996Z,99856.44
2022-12-28T15:58:47.558Z,99845.09
2022-12-28T16:01:14.195Z,99847.34
2022-12-28T16:03:40.929Z,99858.59
2022-12-28T16:06:07.624Z,99857.88
2022-12-28T16:08:34.232Z,99856.19
2022-12-28T16:11:14.173Z,99847.00
2022-12-28T16:13:40.776Z,99851.19
2022-12-28T16:16:08.845Z,99843.19
2022-12-28T16:18:35.672Z,99855.63
2022-12-28T16:21:04.185Z,99847.00
2022-12-28T16:23:32.142Z,99832.41
2022-12-28T16:25:59.620Z,99839.72
2022-12-28T16:28:26.883Z,99837.66
2022-12-28T16:30:54.191Z,99841.28
2022-12-28T16:33:21.253Z,99832.88
2022-12-28T16:35:50.824Z,99832.66
2022-12-28T16:38:23.424Z,99835.88
2022-12-28T16:40:50.390Z,99836.84
2022-12-28T16:43:19.848Z,99844.38
2022-12-28T16:45:46.402Z,99836.34
2022-12-28T16:48:15.988Z,99839.72
2022-12-28T16:50:42.591Z,99834.22
2022-12-28T16:53:09.252Z,99833.38
2022-12-28T16:55:41.992Z,99835.78
2022-12-28T16:58:09.086Z,99831.81
2022-12-28T17:00:36.253Z,99826.34
2022-12-28T17:03:06.230Z,99823.19
2022-12-28T17:05:34.414Z,99829.56
2022-12-28T17:08:01.540Z,99822.84
2022-12-28T17:10:28.573Z,99819.63
2022-12-28T17:12:55.669Z,99810.41
2022-12-28T17:15:22.707Z,99822.75
2022-12-28T17:17:49.405Z,99815.56
2022-12-28T17:20:16.068Z,99813.66
2022-12-28T17:22:42.993Z,99811.97
2022-12-28T17:25:09.627Z,99806.94
2022-12-28T17:27:36.515Z,99805.03
2022-12-28T17:30:03.470Z,99805.63
2022-12-28T17:32:29.958Z,99805.75
2022-12-28T17:34:56.629Z,99805.50
2022-12-28T17:37:23.184Z,99806.59
2022-12-28T17:39:49.848Z,99795.59
2022-12-28T17:42:19.698Z,99800.59
2022-12-28T17:44:48.472Z,99792.69
2022-12-28T17:47:15.281Z,99788.50
2022-12-28T17:49:41.905Z,99795.19
2022-12-28T17:52:08.594Z,99791.16
2022-12-28T17:54:35.198Z,99793.53
2022-12-28T17:57:01.786Z,99786.47
2022-12-28T17:59:28.323Z,99781.66
2022-12-28T18:01:54.979Z,99790.41
2022-12-28T18:04:21.562Z,99781.28
2022-12-28T18:06:48.035Z,99787.28
2022-12-28T18:09:14.523Z,99783.94
2022-12-28T18:11:41.073Z,99778.66
2022-12-28T18:14:07.866Z,99777.00
2022-12-28T18:16:34.525Z,99780.47
2022-12-28T18:19:01.128Z,99786.09
2022-12-28T18:21:28.436Z,99795.19
2022-12-28T18:23:55.244Z,99795.91
2022-12-28T18:26:26.148Z,99779.53
2022-12-28T18:28:53.992Z,99777.00
2022-12-28T18:31:21.241Z,99771.47
2022-12-28T18:33:48.170Z,99773.66
2022-12-28T18:36:17.713Z,99776.75
2022-12-28T18:38:46.395Z,99769.66
2022-12-28T18:41:14.870Z,99762.72
2022-12-28T18:43:41.719Z,99765.72
2022-12-28T18:46:08.938Z,99765.25
2022-12-28T18:48:37.933Z,99771.56
2022-12-28T18:51:09.845Z,99770.75
2022-12-28T18:53:36.410Z,99778.28
2022-12-28T18:56:05.847Z,99777.72
2022-12-28T18:58:34.808Z,99776.63
2022-12-28T19:04:10.869Z,99761.16
2022-12-28T19:06:38.027Z,99767.00
2022-12-28T19:09:05.545Z,99754.19
2022-12-28T19:11:32.519Z,99779.84
2022-12-28T19:13:59.048Z,99777.47
2022-12-28T19:16:31.069Z,99769.66
2022-12-28T19:18:58.678Z,99756.00
2022-12-28T19:21:26.978Z,99760.44
2022-12-28T19:23:58.445Z,99760.91
2022-12-28T19:26:25.477Z,99755.63
2022-12-28T19:28:52.547Z,99755.97
2022-12-28T19:31:19.532Z,99758.25
2022-12-28T19:33:46.941Z,99756.56
2022-12-28T19:36:13.765Z,99756.06
2022-12-28T19:38:40.505Z,99756.34
2022-12-28T19:41:09.460Z,99752.47
2022-12-28T19:43:36.296Z,99746.09
2022-12-28T19:46:23.583Z,99747.69
2022-12-28T19:48:53.653Z,99749.38
2022-12-28T19:51:23.491Z,99742.19
2022-12-28T19:53:54.505Z,99747.25
2022-12-28T19:56:22.124Z,99741.59
2022-12-28T19:58:48.809Z,99741.59
2022-12-28T20:01:17.664Z,99736.19
2022-12-28T20:03:45.209Z,99733.69
2022-12-28T20:06:22.137Z,99729.00
2022-12-28T20:08:50.702Z,99729.72
2022-12-28T20:11:19.073Z,99724.69
2022-12-28T20:13:50.765Z,99726.63
2022-12-28T20:16:17.504Z,99727.53
2022-12-28T20:18:47.612Z,99721.53
2022-12-28T20:21:22.088Z,99719.16
2022-12-28T20:23:50.141Z,99735.94
2022-12-28T20:26:17.748Z,99731.91
2022-12-28T20:28:45.200Z,99729.28
2022-12-28T20:31:13.986Z,99736.94
2022-12-28T20:33:41.427Z,99738.47
2022-12-28T20:36:12.168Z,99738.09
2022-12-28T20:38:38.921Z,99739.66
2022-12-28T20:41:32.712Z,99740.50
2022-12-28T20:44:00.390Z,99737.16
2022-12-28T20:46:27.601Z,99749.88
2022-12-28T20:48:54.669Z,99747.72
2022-12-28T20:51:21.439Z,99749.88
2022-12-28T20:53:48.328Z,99734.66
2022-12-28T20:56:14.780Z,99737.81
2022-12-28T20:58:41.636Z,99736.47
2022-12-28T21:01:10.802Z,99734.06
2022-12-28T21:03:37.526Z,99735.38
2022-12-28T21:06:04.634Z,99730.00
2022-12-28T21:08:31.873Z,99726.97
2022-12-28T21:10:58.691Z,99734.53
2022-12-28T21:13:25.357Z,99717.16
2022-12-28T21:15:52.415Z,99719.66
2022-12-28T21:18:20.048Z,99721.44
2022-12-28T21:20:51.191Z,99724.25
2022-12-28T21:23:17.981Z,99720.59
2022-12-28T21:25:44.667Z,99718.69
2022-12-28T21:28:11.681Z,99716.81
2022-12-28T21:30:38.615Z,99705.72
2022-12-28T21:33:05.701Z,99701.63
2022-12-28T21:35:34.579Z,99702.88
2022-12-28T21:38:02.419Z,99695.91
2022-12-28T21:40:28.931Z,99688.44
2022-12-28T21:42:55.409Z,99698.53
2022-12-28T21:45:21.934Z,99697.78
2022-12-28T21:47:48.575Z,99697.31
2022-12-28T21:50:15.134Z,99696.63
2022-12-28T21:52:41.581Z,99704.25
2022-12-28T21:55:26.862Z,99702.34
2022-12-28T21:57:54.177Z,99704.97
2022-12-28T22:00:39.840Z,99706.91
2022-12-28T22:03:25.276Z,99703.81
2022-12-28T22:06:04.025Z,99693.72
2022-12-28T22:08:50.027Z,99689.59
2022-12-28T22:11:35.479Z,99693.59
2022-12-28T22:14:02.098Z,99688.44
2022-12-28T22:16:28.614Z,99682.94
2022-12-28T22:19:03.256Z,99689.03
2022-12-28T22:21:30.215Z,99690.50
2022-12-28T22:23:56.845Z,99697.59
2022-12-28T22:26:23.424Z,99693.16
2022-12-28T22:28:49.939Z,99694.72
2022-12-28T22:31:16.659Z,99691.47
2022-12-28T22:33:43.370Z,99686.94
2022-12-28T22:36:15.273Z,99693.53
2022-12-28T22:38:41.784Z,99697.31
2022-12-28T22:41:08.970Z,99695.91
2022-12-28T22:43:35.604Z,99678.03
2022-12-28T22:46:02.904Z,99679.44
2022-12-28T22:48:29.556Z,99681.13
2022-12-28T22:50:56.029Z,99680.69
2022-12-28T22:53:22.525Z,99677.91
2022-12-28T22:55:59.614Z,99679.31
2022-12-28T22:58:27.024Z,99675.41
2022-12-28T23:01:04.083Z,99674.31
2022-12-28T23:03:30.943Z,99666.59
2022-12-28T23:05:57.526Z,99678.34
2022-12-28T23:08:24.073Z,99670.19
2022-12-28T23:10:58.991Z,99658.34
2022-12-28T23:13:26.886Z,99657.25
2022-12-28T23:16:11.108Z,99666.03
2022-12-28T23:18:56.521Z,99656.31
2022-12-28T23:21:42.879Z,99670.91
2022-12-28T23:24:31.469Z,99663.44
2022-12-28T23:27:20.736Z,99661.97
2022-12-28T23:29:47.304Z,99658.88
2022-12-28T23:32:13.924Z,99662.47
2022-12-28T23:34:40.398Z,99664.47
2022-12-28T23:37:06.938Z,99663.81
2022-12-28T23:39:33.607Z,99666.09
2022-12-28T23:42:00.068Z,99664.16
2022-12-28T23:44:26.828Z,99658.66
2022-12-28T23:46:58.893Z,99653.28
2022-12-28T23:49:26.272Z,99653.28
2022-12-28T23:51:52.776Z,99643.28
2022-12-28T23:54:26.163Z,99641.63
2022-12-28T23:56:52.700Z,99644.16
2022-12-28T23:59:19.996Z,99639.72
